Terminal Aerodrome Forecast
Issued by NWS Melbourne, FL

Home | Current Version | Previous Version | Text Only | Print | Product List | Glossary On
Versions: 1 2 3 4 5 6 7 8 9 10 11 12 13 14 15 16
000
FTUS42 KMLB 260541
TAFVRB
TAF
KVRB 260541Z 2606/2706 24008KT P6SM BKN110
     FM261400 24011KT P6SM BKN110
     FM261700 27014G20KT P6SM VCSH SCT040 SCT060 BKN110
     FM270000 25010KT P6SM VCSH SCT050 BKN150=

USA.gov is the U.S. government's official web portal to all federal, state and local government web resources and services.